Redlands, CA (92374)

5:10 PM PDT on August 28, 2014 (GMT -0700)
Redlands High School-Terriers | Change Station
CLOSE
Current Station
Personal Weather Station
Location: Redlands, CA
Elevation: 1505 ft
Nearby Weather Stations

Elev 1505 ft 34.05 °N, 117.17 °W | Updated 0 second ago

Clear
Clear
99.4 °F
Feels Like 97 °F
N
3.0
Wind Variable Wind from West
Gusts 10.0 mph

Today
High -- | Low -- °F
--% Chance of Precip.
Yesterday
High -- | Low -- °F
Precip. -- in
6:19 AM 7:19 PM
Waxing Crescent, 10% visible
Pressure 29.90 in
Visibility 10.0 miles
Clouds Clear
Heat Index 97 °F
Dew Point 54 °F
Humidity 22%
Rainfall 0.00 in
Snow Depth Not available.
UV 0.0 out of 12
Pollen 7.80 out of 12
Ozone Moderate
Flu Activity Not available.
METAR KSBD 282348Z 00000KT 10SM SKC 35/08 A2990

More Conditions Fewer Conditions

Pressure 29.90 in
Visibility 10.0 miles
Clouds Clear
Heat Index 97 °F
Dew Point 54 °F
Humidity 22%
Rainfall 0.00 in
Snow Depth Not available.
UV 0.0 out of 12
Pollen 7.80 out of 12
Ozone Moderate
Flu Activity Not available.
METAR KSBD 282348Z 00000KT 10SM SKC 35/08 A2990

More Conditions Fewer Conditions

10-Day Weather Forecast

Almanac

Astronomy

Aug. 28, 2014 Rise Set
Actual Time 6:19 AM PDT 7:19 PM PDT
Civil Twilight 5:53 AM PDT 7:45 PM PDT
Nautical Twilight 5:23 AM PDT 8:15 PM PDT
Astronomical Twilight 4:51 AM PDT 8:47 PM PDT
Moon 9:06 AM PDT (8/28) 8:57 PM PDT (8/28)
Length of Visible Light 13h 51m
Length of Day
13h 00m
Tomorrow will be 2m 0s shorter.
Waxing Crescent, 10% of the Moon is Illuminated
Today
Waxing Crescent
Sep 2
First Quarter
Sep 8
Full
Sep 15
Last Quarter
Sep 24
New

Today's Extremes

State Highs State Lows

Community

WunderPhotos

Upload Photos

1,748,106 photos uploaded!

Nearby

Air Quality

  Air Quality AQ Index Pollutant
Yesterday Moderate
OZONE
Current Moderate
OZONE
Friday Unhealthy for Sensitive Groups
OZONE
Friday Good
PM10
Friday Good
CO
Friday Good
NO2

Snow Depth

Station Depth Elevation
Leavitt Meadows 0 in 7200 ft
CSS Lab 4 in 6900 ft
Adin Mountain 1 in 6200 ft
Cedar Pass 0 in 7100 ft

Earthquake Activity

City Distance Mag. Time & Date
San Fernando, California 72 miles 2.5 4:57 AM PDT
2014-08-26
Progreso, Mexico 133 miles 2.6 10:55 PM PDT
2014-08-25
Minimum magnitude displayed is 2.5.

Coastal Water Temperatures

Place Temperature
No Stations Reporting

Nearby Weather Stations